Terminal Aerodrome Forecast
Issued by NWS

Home | Current Version | Previous Version | Text Only | Print | Product List | Glossary On
Versions: 1 2 3 4 5 6 7 8 9 10 11 12 13 14 15 16 17 18 19 20 21 22
000
FTAK31 PAJN 281120
TAFAJN
TAF
PAJN 281120Z 2812/2912 29003KT P6SM BKN120 WS020/03020KT
     FM281700 23006KT P6SM BKN100
     FM290500 VRB05KT P6SM BKN100 WS020/03020KT=

USA.gov is the U.S. government's official web portal to all federal, state and local government web resources and services.